Time;durP1;ratioP1;P1;durP2;ratioP2;P2;SDS_P1;SDS_P2;PMS_P1;PMS_P2;Temp;Humidity;BMP_temperature;BMP_pressure;BME280_temperature;BME280_humidity;BME280_pressure;Samples;Min_cycle;Max_cycle;Signal;HPM_P1;HPM_P2
2023/05/31 00:01:50;;;;;;;7.20;5.50;;;;;;;8.34;65.78;100591.91;218297;1259;138652;-77
2023/05/31 00:06:54;;;;;;;12.80;4.50;;;;;;;8.25;65.98;100599.34;218187;1256;140573;-76
2023/05/31 00:11:58;;;;;;;6.80;4.80;;;;;;;8.16;66.31;100600.98;218085;1256;140567;-69
2023/05/31 00:17:01;;;;;;;5.90;2.90;;;;;;;8.13;66.43;100602.93;218639;1256;140804;-69
2023/05/31 00:22:26;;;;;;;8.20;5.20;;;;;;;8.07;66.66;100602.77;217808;1257;140554;-70
2023/05/31 00:27:29;;;;;;;6.00;4.90;;;;;;;8.02;66.81;100603.81;218165;1257;139900;-70
2023/05/31 00:32:33;;;;;;;9.70;3.60;;;;;;;8.01;67.02;100603.59;218336;1257;140215;-76
2023/05/31 00:37:37;;;;;;;7.60;3.50;;;;;;;7.98;66.80;100607.21;218434;1256;140075;-74
2023/05/31 00:42:41;;;;;;;6.30;4.80;;;;;;;7.93;67.13;100607.36;219242;1256;140115;-74
2023/05/31 00:47:44;;;;;;;6.80;3.10;;;;;;;7.83;67.43;100609.72;219574;1257;140107;-70
2023/05/31 00:52:51;;;;;;;6.70;4.00;;;;;;;7.75;67.20;100606.96;218099;1259;139840;-69
2023/05/31 00:57:54;;;;;;;8.30;4.10;;;;;;;7.74;67.76;100607.98;218143;1257;139833;-68
2023/05/31 01:03:02;;;;;;;6.90;3.30;;;;;;;7.79;68.23;100605.53;220055;1256;139661;-68
2023/05/31 01:08:06;;;;;;;6.40;3.00;;;;;;;7.77;68.11;100607.76;220505;1255;140060;-75
2023/05/31 01:13:43;;;;;;;8.30;4.20;;;;;;;7.72;67.52;100609.80;220759;1255;140998;-72
2023/05/31 01:19:00;;;;;;;10.10;3.80;;;;;;;7.71;67.84;100609.96;219047;1256;139755;-73
2023/05/31 01:24:31;;;;;;;6.70;4.50;;;;;;;7.72;67.95;100613.11;220145;1257;140677;-71
2023/05/31 01:29:38;;;;;;;12.20;4.70;;;;;;;7.69;68.07;100616.72;218361;1256;140508;-72
2023/05/31 01:34:45;;;;;;;4.40;3.30;;;;;;;7.67;67.99;100617.16;219446;1256;140961;-72
2023/05/31 01:39:51;;;;;;;5.10;3.50;;;;;;;7.63;68.21;100623.07;218055;1257;140778;-74
2023/05/31 01:44:57;;;;;;;3.40;2.80;;;;;;;7.55;68.27;100623.54;219107;1255;140370;-73
2023/05/31 01:50:00;;;;;;;4.20;2.80;;;;;;;7.43;67.99;100621.84;218704;1256;139644;-72
2023/05/31 01:55:04;;;;;;;7.10;3.00;;;;;;;7.39;68.76;100626.95;218010;1257;140753;-72
2023/05/31 02:00:11;;;;;;;5.90;3.00;;;;;;;7.39;68.94;100636.95;219100;1256;140699;-73
2023/05/31 02:05:15;;;;;;;9.30;2.50;;;;;;;7.30;68.60;100635.02;217761;1257;139520;-71
2023/05/31 02:10:18;;;;;;;4.60;3.40;;;;;;;7.13;69.09;100634.08;218174;1257;140135;-72
2023/05/31 02:15:20;;;;;;;5.20;3.40;;;;;;;6.97;69.23;100631.18;218026;1257;140323;-69
2023/05/31 02:20:22;;;;;;;8.30;5.50;;;;;;;6.91;69.55;100629.41;218488;1256;140193;-74
2023/05/31 02:25:24;;;;;;;4.50;3.90;;;;;;;6.95;70.07;100628.75;217903;1257;139542;-74
2023/05/31 02:30:27;;;;;;;4.30;3.80;;;;;;;7.00;69.94;100626.02;218235;1257;140643;-72
2023/05/31 02:35:30;;;;;;;4.00;2.70;;;;;;;6.97;69.95;100633.83;217991;1256;139929;-71
2023/05/31 02:40:36;;;;;;;4.20;3.40;;;;;;;6.97;70.15;100633.59;219795;1256;139807;-76
2023/05/31 02:45:39;;;;;;;5.00;2.70;;;;;;;7.00;70.38;100636.80;217593;1256;139909;-76
2023/05/31 02:50:42;;;;;;;2.20;1.90;;;;;;;7.01;70.06;100646.55;218640;1256;141539;-76
2023/05/31 02:55:47;;;;;;;4.50;2.90;;;;;;;6.93;69.77;100644.91;218997;1256;140959;-75
2023/05/31 03:00:50;;;;;;;4.00;3.50;;;;;;;6.92;70.46;100646.55;219887;1256;140672;-75
2023/05/31 03:05:54;;;;;;;4.70;2.30;;;;;;;6.97;70.29;100645.16;220659;1256;140032;-76
2023/05/31 03:10:58;;;;;;;5.70;3.00;;;;;;;6.96;70.51;100645.85;219759;1257;140336;-76
2023/05/31 03:16:01;;;;;;;2.90;2.60;;;;;;;7.03;70.30;100651.56;219559;1256;141963;-75
2023/05/31 03:21:05;;;;;;;7.00;2.80;;;;;;;7.09;70.69;100655.95;218481;1257;141439;-74
2023/05/31 03:26:08;;;;;;;3.80;2.90;;;;;;;7.15;70.86;100655.36;218367;1256;141741;-74
2023/05/31 03:31:10;;;;;;;2.70;2.40;;;;;;;7.25;71.55;100646.89;217952;1256;140572;-81
2023/05/31 03:36:13;;;;;;;3.70;2.80;;;;;;;7.38;71.15;100644.38;217900;1256;141721;-77
2023/05/31 03:41:17;;;;;;;3.20;3.00;;;;;;;7.51;71.31;100641.06;218839;1256;140167;-76
2023/05/31 03:46:22;;;;;;;5.50;3.80;;;;;;;7.77;71.25;100639.98;218346;1256;140261;-75
2023/05/31 03:51:26;;;;;;;7.80;3.40;;;;;;;7.95;71.76;100639.08;218956;1255;139801;-71
2023/05/31 03:56:30;;;;;;;5.20;3.40;;;;;;;8.30;71.84;100643.30;217937;1256;139779;-70
2023/05/31 04:01:32;;;;;;;5.20;3.50;;;;;;;8.81;71.63;100643.58;218180;1257;139814;-82
2023/05/31 04:06:35;;;;;;;4.60;3.80;;;;;;;9.18;71.33;100643.92;217954;1256;141138;-80
2023/05/31 04:11:38;;;;;;;7.90;3.60;;;;;;;9.49;71.19;100648.69;217727;1259;140234;-78
2023/05/31 04:16:41;;;;;;;6.40;3.30;;;;;;;9.74;71.02;100648.25;218038;1256;141205;-71
2023/05/31 04:21:45;;;;;;;13.40;4.00;;;;;;;11.63;69.17;100640.89;218885;1257;140039;-75
2023/05/31 04:26:48;;;;;;;8.70;3.10;;;;;;;14.27;66.05;100639.55;218804;1256;140239;-75
2023/05/31 04:31:51;;;;;;;6.40;3.00;;;;;;;14.58;65.10;100640.77;217801;1257;139701;-75
2023/05/31 04:36:55;;;;;;;2.40;2.10;;;;;;;14.68;64.06;100648.32;218780;1256;151225;-73
2023/05/31 04:41:59;;;;;;;10.90;2.80;;;;;;;16.02;61.95;100640.11;219097;1256;140654;-66
2023/05/31 04:47:01;;;;;;;2.30;2.10;;;;;;;16.60;60.63;100640.81;218291;1256;140410;-73
2023/05/31 04:52:04;;;;;;;8.20;2.70;;;;;;;17.63;58.89;100645.92;220568;1256;140060;-74
2023/05/31 04:57:07;;;;;;;7.90;2.50;;;;;;;17.40;58.26;100643.20;219956;1256;140276;-73
2023/05/31 05:02:10;;;;;;;6.20;2.00;;;;;;;17.40;57.38;100640.13;220606;1256;140144;-73
2023/05/31 05:07:12;;;;;;;7.10;2.20;;;;;;;19.84;54.17;100639.52;219203;1256;139129;-74
2023/05/31 05:12:15;;;;;;;4.90;2.00;;;;;;;23.11;50.66;100637.95;220258;1256;141957;-78
2023/05/31 05:17:19;;;;;;;4.00;2.20;;;;;;;25.91;46.72;100641.19;220251;1256;141155;-72
2023/05/31 05:22:21;;;;;;;1.90;1.50;;;;;;;28.81;42.50;100648.77;218405;1256;139131;-80
2023/05/31 05:27:25;;;;;;;1.80;1.40;;;;;;;31.05;38.52;100657.91;218686;1256;139748;-68
2023/05/31 05:32:28;;;;;;;4.30;1.30;;;;;;;32.78;35.62;100661.44;218915;1260;140739;-76
2023/05/31 05:37:32;;;;;;;;;;;;;;;34.24;32.74;100660.56;219098;1257;139695;-74
2023/05/31 05:42:37;;;;;;;1.40;0.70;;;;;;;35.28;30.40;100665.89;218627;1257;125917;-76
2023/05/31 05:47:44;;;;;;;4.40;1.60;;;;;;;36.24;28.78;100668.52;217856;1257;140112;-76
2023/05/31 05:52:48;;;;;;;4.20;1.30;;;;;;;37.17;26.84;100662.61;218587;1259;140827;-76
2023/05/31 05:57:52;;;;;;;1.50;1.00;;;;;;;37.80;25.54;100660.27;218654;1256;140416;-75
2023/05/31 06:02:55;;;;;;;2.10;1.00;;;;;;;38.43;24.33;100656.66;218148;1257;139657;-74
2023/05/31 06:08:00;;;;;;;4.90;1.00;;;;;;;38.90;23.28;100654.55;218345;1256;139325;-69
2023/05/31 06:13:04;;;;;;;1.30;1.00;;;;;;;39.35;22.39;100655.59;217624;1259;139177;-70
2023/05/31 06:18:09;;;;;;;11.10;2.00;;;;;;;39.75;21.65;100655.70;218097;1257;139196;-69
2023/05/31 06:23:13;;;;;;;4.70;1.00;;;;;;;39.72;20.85;100659.02;218513;1256;139484;-68
2023/05/31 06:28:16;;;;;;;1.80;0.70;;;;;;;39.47;20.38;100656.63;218753;1257;139657;-68
2023/05/31 06:33:19;;;;;;;1.60;1.10;;;;;;;39.61;20.08;100654.55;217705;1259;140332;-69
2023/05/31 06:38:24;;;;;;;1.70;1.00;;;;;;;39.35;19.82;100649.13;217595;1257;139367;-69
2023/05/31 06:43:27;;;;;;;2.30;0.60;;;;;;;39.28;19.47;100647.02;218334;1259;140102;-70
2023/05/31 06:48:31;;;;;;;2.90;0.90;;;;;;;39.06;19.36;100639.49;217874;1256;139905;-69
2023/05/31 06:53:35;;;;;;;1.40;0.50;;;;;;;38.80;19.34;100634.73;220204;1257;139720;-75
2023/05/31 06:58:41;;;;;;;36.60;2.40;;;;;;;38.35;19.11;100627.23;220554;1256;139532;-69
2023/05/31 07:03:45;;;;;;;3.50;0.90;;;;;;;38.34;19.30;100625.48;220481;1257;140575;-70
2023/05/31 07:08:47;;;;;;;0.50;0.50;;;;;;;38.15;18.69;100621.37;219980;1256;140232;-70
2023/05/31 07:13:50;;;;;;;6.90;2.60;;;;;;;37.93;18.89;100616.15;219530;1257;140342;-68
2023/05/31 07:18:53;;;;;;;;;;;;;;;37.69;19.05;100614.95;219521;1257;139741;-73
2023/05/31 07:23:56;;;;;;;2.90;0.80;;;;;;;36.44;19.37;100614.84;218273;1259;126789;-73
2023/05/31 07:29:00;;;;;;;1.10;0.80;;;;;;;35.12;20.16;100609.09;218948;1256;141139;-69
2023/05/31 07:34:03;;;;;;;1.20;1.10;;;;;;;34.60;20.95;100601.80;218723;1256;139776;-70
2023/05/31 07:39:10;;;;;;;1.50;1.40;;;;;;;32.77;21.35;100596.86;218767;1257;139870;-72
2023/05/31 07:44:16;;;;;;;3.10;1.20;;;;;;;31.69;22.75;100594.77;217992;1259;139210;-71
2023/05/31 07:49:19;;;;;;;2.10;0.70;;;;;;;31.36;23.34;100587.36;217676;1257;140251;-69
2023/05/31 07:54:23;;;;;;;4.20;0.80;;;;;;;31.23;23.96;100586.63;218638;1257;140293;-68
2023/05/31 07:59:27;;;;;;;1.50;1.10;;;;;;;30.99;24.66;100585.16;217825;1257;153728;-71
2023/05/31 08:04:30;;;;;;;7.90;0.90;;;;;;;30.64;24.01;100582.65;219385;1257;140428;-73
2023/05/31 08:09:33;;;;;;;8.30;1.40;;;;;;;30.26;23.87;100583.16;217840;1257;140677;-72
2023/05/31 08:14:37;;;;;;;3.40;1.20;;;;;;;29.74;24.26;100584.41;217901;1257;139184;-70
2023/05/31 08:19:41;;;;;;;5.30;1.00;;;;;;;29.22;24.69;100577.35;218259;1257;141413;-71
2023/05/31 08:24:44;;;;;;;2.50;1.20;;;;;;;29.11;25.57;100578.37;218944;1257;141353;-68
2023/05/31 08:29:48;;;;;;;3.50;1.10;;;;;;;28.98;25.63;100577.67;219527;1256;140555;-72
2023/05/31 08:34:54;;;;;;;2.10;1.30;;;;;;;28.98;26.27;100575.03;219428;1257;139413;-71
2023/05/31 08:39:58;;;;;;;9.50;1.30;;;;;;;28.87;25.96;100576.12;218994;1257;139144;-68
2023/05/31 08:45:03;;;;;;;37.10;3.70;;;;;;;28.45;25.39;100573.84;219565;1257;142012;-68
2023/05/31 08:50:06;;;;;;;;;;;;;;;28.16;25.14;100568.98;220288;1257;139233;-69
2023/05/31 08:55:11;;;;;;;1.50;0.90;;;;;;;27.70;25.21;100564.64;220638;1257;126081;-69
2023/05/31 09:00:18;;;;;;;7.10;1.70;;;;;;;27.43;25.41;100567.05;220514;1256;140125;-68
2023/05/31 09:05:27;;;;;;;2.00;1.20;;;;;;;27.38;26.02;100561.58;218535;1256;139206;-66
2023/05/31 09:10:34;;;;;;;2.20;1.10;;;;;;;27.30;25.69;100559.52;218995;1257;205631;-68
2023/05/31 09:15:38;;;;;;;2.70;1.40;;;;;;;27.18;25.87;100561.42;219930;1257;139680;-69
2023/05/31 09:20:41;;;;;;;6.00;1.70;;;;;;;27.10;25.03;100556.80;218470;1258;140245;-67
2023/05/31 09:25:46;;;;;;;1.50;1.40;;;;;;;27.17;25.60;100561.38;218326;1256;139252;-65
2023/05/31 09:31:07;;;;;;;3.20;1.70;;;;;;;27.03;25.88;100564.59;218818;1257;139665;-65
2023/05/31 09:36:12;;;;;;;2.60;1.90;;;;;;;26.71;25.60;100550.89;218937;1257;139507;-67
2023/05/31 09:41:19;;;;;;;2.30;1.30;;;;;;;26.32;25.90;100548.73;218885;1257;140579;-74
2023/05/31 09:46:23;;;;;;;2.50;1.30;;;;;;;26.45;26.46;100547.00;218215;1257;144428;-70
2023/05/31 09:51:26;;;;;;;2.50;1.50;;;;;;;26.41;26.54;100543.14;218178;1257;141447;-66
2023/05/31 09:56:29;;;;;;;2.90;1.70;;;;;;;26.43;26.44;100537.13;217167;1257;994938;-67
2023/05/31 10:01:34;;;;;;;3.90;1.60;;;;;;;26.52;26.28;100541.94;219513;1257;139435;-71
2023/05/31 10:06:37;;;;;;;3.00;1.30;;;;;;;26.55;25.57;100540.98;218338;1257;140411;-68
2023/05/31 10:11:46;;;;;;;2.30;1.40;;;;;;;26.52;25.52;100539.91;217849;1257;139916;-69
2023/05/31 10:16:51;;;;;;;1.80;1.40;;;;;;;26.53;25.33;100528.23;218109;1256;140236;-70
2023/05/31 10:22:00;;;;;;;2.20;1.40;;;;;;;26.50;25.69;100533.02;219232;1257;140103;-70
2023/05/31 10:27:44;;;;;;;1.10;1.10;;;;;;;26.46;25.89;100525.23;218827;1260;140012;-69
2023/05/31 10:33:00;;;;;;;1.60;1.10;;;;;;;26.38;25.93;100512.68;218459;1257;139344;-70
2023/05/31 10:38:06;;;;;;;7.20;1.20;;;;;;;26.37;25.83;100506.92;219769;1255;139074;-71
2023/05/31 10:43:23;;;;;;;2.10;1.30;;;;;;;26.35;25.56;100511.30;220378;1260;139212;-70
2023/05/31 10:48:57;;;;;;;1.40;1.00;;;;;;;26.30;25.30;100507.30;218532;1257;139736;-68
2023/05/31 10:54:01;;;;;;;1.80;1.10;;;;;;;26.37;25.50;100502.16;220481;1256;139507;-71
2023/05/31 10:59:05;;;;;;;2.60;1.10;;;;;;;26.48;24.69;100504.27;217942;1257;139649;-71
2023/05/31 11:04:29;;;;;;;0.90;0.80;;;;;;;26.37;24.22;100504.73;218466;1257;140622;-70
2023/05/31 11:09:35;;;;;;;1.90;1.00;;;;;;;26.15;24.48;100490.20;219930;1257;229108;-71
2023/05/31 11:14:40;;;;;;;4.00;1.20;;;;;;;26.20;25.36;100486.48;217843;1260;140373;-71
2023/05/31 11:19:51;;;;;;;2.80;1.40;;;;;;;26.19;25.56;100479.80;218266;1259;140190;-70
2023/05/31 11:24:57;;;;;;;3.80;1.00;;;;;;;26.17;25.87;100480.37;217996;1260;221065;-71
2023/05/31 11:30:06;;;;;;;1.40;1.00;;;;;;;26.08;25.25;100473.79;217942;1259;139026;-71
2023/05/31 11:35:16;;;;;;;7.70;1.10;;;;;;;26.04;25.63;100466.76;217685;1259;139163;-71
2023/05/31 11:40:22;;;;;;;1.10;1.00;;;;;;;25.89;24.68;100465.04;218735;1257;139664;-71
2023/05/31 11:45:28;;;;;;;1.30;1.20;;;;;;;25.68;24.85;100470.73;217990;1258;139581;-71
2023/05/31 11:50:32;;;;;;;1.90;1.00;;;;;;;25.44;25.34;100463.27;218435;1256;139337;-72
2023/05/31 11:55:36;;;;;;;1.90;0.90;;;;;;;25.29;25.94;100453.42;217848;1257;141501;-72
2023/05/31 12:00:48;;;;;;;1.30;0.90;;;;;;;25.27;25.15;100447.05;217808;1260;139267;-71
2023/05/31 12:05:56;;;;;;;1.70;1.30;;;;;;;25.41;25.37;100436.66;218086;1260;139929;-71
2023/05/31 12:11:03;;;;;;;1.20;1.10;;;;;;;25.53;24.86;100434.67;218009;1260;139066;-71
2023/05/31 12:16:07;;;;;;;;;;;;;;;25.55;24.95;100440.52;218361;1260;139611;-71
2023/05/31 12:21:15;;;;;;;1.10;1.00;;;;;;;25.61;24.91;100434.39;219197;1259;125607;-69
2023/05/31 12:26:21;;;;;;;0.80;0.80;;;;;;;25.64;24.09;100427.23;218850;1257;140188;-72
2023/05/31 12:31:25;;;;;;;;;;;;;;;25.58;23.80;100429.07;219156;1257;139704;-72
2023/05/31 12:36:29;;;;;;;6.70;1.00;;;;;;;25.60;23.84;100421.05;219221;1259;126004;-71
2023/05/31 12:41:33;;;;;;;1.60;0.90;;;;;;;25.51;23.54;100413.44;218735;1257;139721;-71
2023/05/31 12:46:44;;;;;;;2.20;0.90;;;;;;;25.60;23.84;100408.65;220444;1256;140425;-72
2023/05/31 12:51:48;;;;;;;1.20;1.10;;;;;;;25.57;23.22;100405.02;219178;1260;140964;-75
2023/05/31 12:56:51;;;;;;;1.60;0.80;;;;;;;25.58;23.38;100400.45;219790;1259;139203;-69
2023/05/31 13:01:56;;;;;;;1.30;1.20;;;;;;;25.53;23.79;100395.59;218930;1260;138954;-69
2023/05/31 13:07:01;;;;;;;0.90;0.70;;;;;;;25.47;23.84;100382.86;217998;1260;139981;-72
2023/05/31 13:12:06;;;;;;;3.40;1.10;;;;;;;25.44;23.40;100374.82;218283;1260;140353;-74
2023/05/31 13:17:10;;;;;;;4.10;1.00;;;;;;;25.37;22.76;100375.90;217939;1260;139750;-76
2023/05/31 13:22:13;;;;;;;2.70;0.90;;;;;;;25.13;22.11;100367.27;217905;1257;138736;-73
2023/05/31 13:27:15;;;;;;;1.40;1.20;;;;;;;25.05;22.47;100366.10;218345;1260;140891;-72
2023/05/31 13:32:18;;;;;;;2.30;1.20;;;;;;;25.14;22.86;100355.55;217786;1260;141134;-73
2023/05/31 13:37:21;;;;;;;1.10;1.00;;;;;;;25.15;22.35;100350.39;218811;1257;140394;-73
2023/05/31 13:42:23;;;;;;;2.10;1.00;;;;;;;25.00;22.10;100340.54;217815;1260;140560;-74
2023/05/31 13:47:30;;;;;;;1.10;0.90;;;;;;;25.00;22.01;100333.77;220175;1257;140442;-74
2023/05/31 13:52:35;;;;;;;;;;;;;;;24.92;22.06;100326.77;218416;1258;139951;-71
2023/05/31 13:57:38;;;;;;;0.90;0.70;;;;;;;24.86;22.42;100318.47;218300;1256;125808;-71
2023/05/31 14:02:41;;;;;;;6.40;1.30;;;;;;;24.87;22.41;100316.58;217961;1260;140547;-71
2023/05/31 14:07:45;;;;;;;1.10;1.10;;;;;;;24.91;22.24;100313.16;217716;1257;139238;-71
2023/05/31 14:12:49;;;;;;;3.10;1.20;;;;;;;24.83;22.37;100308.89;218056;1258;140675;-71
2023/05/31 14:17:52;;;;;;;3.80;1.40;;;;;;;24.79;22.93;100303.23;217771;1258;139600;-70
2023/05/31 14:22:55;;;;;;;2.90;1.10;;;;;;;24.78;23.17;100297.07;218218;1256;140065;-73
2023/05/31 14:27:59;;;;;;;3.40;1.20;;;;;;;24.76;23.00;100287.67;218752;1257;139198;-73
2023/05/31 14:33:03;;;;;;;1.20;0.90;;;;;;;24.76;23.21;100280.05;218415;1256;138973;-72
2023/05/31 14:38:08;;;;;;;38.00;3.10;;;;;;;24.73;23.87;100276.55;218863;1256;159594;-75
2023/05/31 14:43:33;;;;;;;3.40;1.00;;;;;;;24.65;23.82;100272.51;220533;1257;140866;-74
2023/05/31 14:48:39;;;;;;;5.50;1.30;;;;;;;24.57;23.92;100265.89;219257;1256;139595;-74
2023/05/31 14:53:43;;;;;;;5.00;1.20;;;;;;;24.52;23.99;100260.58;217564;1257;139491;-68
2023/05/31 14:58:47;;;;;;;1.80;1.30;;;;;;;24.58;24.21;100259.55;219771;1257;139758;-74
2023/05/31 15:03:52;;;;;;;1.30;1.30;;;;;;;24.54;23.95;100253.55;218579;1258;139302;-75
2023/05/31 15:08:55;;;;;;;1.50;0.90;;;;;;;24.39;23.43;100246.11;219382;1257;139298;-74
2023/05/31 15:13:58;;;;;;;2.00;1.20;;;;;;;24.37;23.13;100238.35;219003;1256;138924;-74
2023/05/31 15:19:02;;;;;;;4.50;1.40;;;;;;;24.31;23.57;100237.66;218548;1258;140077;-73
2023/05/31 15:24:05;;;;;;;2.70;1.30;;;;;;;24.24;23.49;100233.48;217995;1257;140081;-73
2023/05/31 15:29:08;;;;;;;2.10;1.00;;;;;;;24.17;23.23;100225.88;219179;1257;139768;-74
2023/05/31 15:34:15;;;;;;;3.30;1.50;;;;;;;24.11;23.22;100219.19;218410;1256;139745;-73
2023/05/31 15:39:21;;;;;;;4.30;1.50;;;;;;;24.02;23.60;100215.70;217932;1257;140254;-74
2023/05/31 15:44:25;;;;;;;4.20;1.60;;;;;;;23.94;23.70;100213.25;218001;1259;140998;-74
2023/05/31 15:49:30;;;;;;;1.60;1.10;;;;;;;23.88;23.91;100206.81;218257;1257;139829;-72
2023/05/31 15:54:34;;;;;;;1.10;1.10;;;;;;;23.81;23.90;100206.06;218033;1256;139439;-74
2023/05/31 15:59:37;;;;;;;28.40;3.50;;;;;;;23.77;23.54;100201.33;218775;1256;139647;-75
2023/05/31 16:04:40;;;;;;;1.20;1.10;;;;;;;23.69;23.59;100197.61;218134;1256;142730;-74
2023/05/31 16:09:43;;;;;;;2.40;1.20;;;;;;;23.64;23.63;100192.29;217916;1257;139934;-74
2023/05/31 16:14:47;;;;;;;2.10;0.80;;;;;;;23.53;23.96;100182.80;218662;1256;139277;-73
2023/05/31 16:19:51;;;;;;;3.90;1.40;;;;;;;23.44;24.14;100175.30;219005;1257;139118;-74
2023/05/31 16:24:56;;;;;;;1.50;1.10;;;;;;;23.31;24.32;100172.76;219680;1256;139504;-75
2023/05/31 16:30:00;;;;;;;1.60;1.30;;;;;;;23.14;24.25;100164.20;220470;1256;139779;-75
2023/05/31 16:35:03;;;;;;;2.50;1.20;;;;;;;23.09;24.41;100158.42;220564;1257;139560;-75
2023/05/31 16:40:07;;;;;;;3.80;1.10;;;;;;;23.10;24.44;100155.52;220382;1256;139999;-75
2023/05/31 16:45:11;;;;;;;2.20;1.10;;;;;;;23.03;24.52;100155.73;219605;1256;141025;-74
2023/05/31 16:50:15;;;;;;;12.70;1.80;;;;;;;23.00;24.38;100149.11;220151;1256;139058;-74
2023/05/31 16:55:22;;;;;;;1.60;1.10;;;;;;;22.90;25.11;100143.64;218345;1257;139591;-75
2023/05/31 17:00:28;;;;;;;2.40;1.60;;;;;;;22.82;25.26;100142.58;219762;1256;140094;-75
2023/05/31 17:05:32;;;;;;;1.80;1.60;;;;;;;22.71;25.52;100141.85;218919;1256;140913;-74
2023/05/31 17:10:37;;;;;;;9.30;1.50;;;;;;;22.58;25.86;100131.29;218788;1257;139378;-74
2023/05/31 17:15:44;;;;;;;1.70;1.50;;;;;;;22.48;26.28;100129.20;218976;1256;139022;-74
2023/05/31 17:20:53;;;;;;;2.40;1.30;;;;;;;22.35;27.07;100125.25;218106;1256;138971;-74
2023/05/31 17:26:00;;;;;;;2.10;1.30;;;;;;;22.17;27.88;100119.85;218286;1256;140126;-75
2023/05/31 17:31:12;;;;;;;8.40;1.70;;;;;;;21.97;28.27;100115.18;217813;1257;138961;-74
2023/05/31 17:36:16;;;;;;;6.20;1.90;;;;;;;21.68;28.44;100108.81;217873;1257;140337;-75
2023/05/31 17:41:21;;;;;;;1.70;1.40;;;;;;;21.47;28.94;100114.17;217797;1257;139513;-69
2023/05/31 17:46:25;;;;;;;8.10;1.50;;;;;;;21.22;29.40;100103.96;219038;1257;139122;-77
2023/05/31 17:51:30;;;;;;;2.30;1.60;;;;;;;20.96;30.66;100099.80;217955;1257;140324;-76
2023/05/31 17:56:33;;;;;;;4.80;1.40;;;;;;;20.70;31.72;100092.05;218109;1256;139701;-78
2023/05/31 18:01:40;;;;;;;2.60;1.70;;;;;;;20.37;31.66;100091.24;217907;1260;139216;-78
2023/05/31 18:06:49;;;;;;;2.90;1.10;;;;;;;20.10;32.93;100089.34;219198;1256;141786;-78
2023/05/31 18:11:55;;;;;;;2.70;1.70;;;;;;;19.85;34.26;100091.20;219383;1256;139277;-69
2023/05/31 18:16:58;;;;;;;1.80;0.90;;;;;;;19.54;34.41;100086.64;218441;1256;138895;-77
2023/05/31 18:22:01;;;;;;;1.50;1.20;;;;;;;19.24;35.15;100085.77;217873;1257;140135;-77
2023/05/31 18:27:31;;;;;;;1.10;1.00;;;;;;;18.94;36.25;100081.89;220652;1256;138970;-74
2023/05/31 18:32:35;;;;;;;1.40;1.30;;;;;;;18.61;37.14;100083.39;219902;1256;140436;-78
2023/05/31 18:37:39;;;;;;;3.20;1.60;;;;;;;18.22;38.17;100077.74;218619;1256;138915;-77
2023/05/31 18:42:43;;;;;;;1.60;1.50;;;;;;;17.88;38.60;100079.11;219718;1256;140840;-77
2023/05/31 18:47:49;;;;;;;1.30;1.20;;;;;;;17.52;39.33;100077.11;218968;1256;139297;-78
2023/05/31 18:52:53;;;;;;;3.20;1.70;;;;;;;17.14;40.11;100077.63;218314;1256;139467;-79
2023/05/31 18:57:58;;;;;;;1.80;1.70;;;;;;;16.74;40.78;100077.91;217910;1257;139867;-77
2023/05/31 19:03:01;;;;;;;4.00;1.60;;;;;;;16.32;41.44;100079.72;219069;1256;138945;-78
2023/05/31 19:08:06;;;;;;;6.40;1.90;;;;;;;15.88;42.33;100084.91;218496;1256;139377;-79
2023/05/31 19:13:12;;;;;;;7.00;1.90;;;;;;;15.58;43.22;100088.80;218591;1257;140454;-76
2023/05/31 19:18:15;;;;;;;16.10;2.60;;;;;;;15.44;43.73;100093.30;218096;1257;140196;-83
2023/05/31 19:23:22;;;;;;;6.40;2.10;;;;;;;15.24;44.31;100089.92;217814;1260;142145;-83
2023/05/31 19:28:26;;;;;;;6.70;1.70;;;;;;;14.88;44.49;100087.73;218994;1256;140930;-86
2023/05/31 19:33:31;;;;;;;2.30;1.70;;;;;;;14.61;44.81;100086.41;217855;1259;141124;-81
2023/05/31 19:38:44;;;;;;;6.90;1.50;;;;;;;14.44;45.36;100090.98;218700;1256;140286;-80
2023/05/31 19:43:50;;;;;;;6.70;1.70;;;;;;;14.23;46.03;100092.54;217771;1256;140837;-80
2023/05/31 19:48:53;;;;;;;9.30;2.50;;;;;;;14.04;46.25;100095.83;218509;1256;139631;-77
2023/05/31 19:53:56;;;;;;;7.80;2.60;;;;;;;13.79;46.91;100093.30;218345;1256;141060;-76
2023/05/31 19:59:00;;;;;;;6.00;2.90;;;;;;;13.51;47.46;100092.05;217958;1257;140383;-73
2023/05/31 20:04:05;;;;;;;4.00;2.20;;;;;;;13.20;47.88;100090.86;218385;1256;139988;-74
2023/05/31 20:09:10;;;;;;;2.30;2.00;;;;;;;12.93;48.62;100090.87;219081;1256;139808;-74
2023/05/31 20:14:22;;;;;;;9.00;3.00;;;;;;;12.63;49.28;100087.18;218983;1256;143128;-78
2023/05/31 20:19:25;;;;;;;2.60;2.20;;;;;;;12.44;49.91;100090.61;219196;1256;139731;-85
2023/05/31 20:24:31;;;;;;;4.30;2.30;;;;;;;12.28;50.87;100087.52;219240;1256;139525;-81
2023/05/31 20:29:37;;;;;;;8.90;2.70;;;;;;;12.06;51.43;100080.56;219248;1257;139122;-78
2023/05/31 20:34:41;;;;;;;7.50;3.50;;;;;;;11.85;51.81;100074.45;219969;1256;139677;-79
2023/05/31 20:39:44;;;;;;;8.30;3.10;;;;;;;11.72;52.23;100071.70;218811;1256;140405;-83
2023/05/31 20:44:49;;;;;;;5.80;3.00;;;;;;;11.59;52.66;100063.75;218206;1258;139594;-76
2023/05/31 20:50:00;;;;;;;23.90;5.20;;;;;;;11.38;53.14;100057.56;219443;1256;139896;-78
2023/05/31 20:55:04;;;;;;;9.90;3.60;;;;;;;11.17;53.79;100056.38;218998;1259;139714;-80
2023/05/31 21:00:09;;;;;;;13.60;5.20;;;;;;;11.02;54.53;100051.38;218664;1256;139259;-72
2023/05/31 21:05:13;;;;;;;12.00;5.00;;;;;;;10.84;54.94;100041.75;218592;1256;140451;-74
2023/05/31 21:10:16;;;;;;;6.10;3.80;;;;;;;10.69;55.60;100046.93;217918;1257;141335;-71
2023/05/31 21:15:20;;;;;;;14.00;3.90;;;;;;;10.65;55.89;100047.09;218086;1257;142429;-71
2023/05/31 21:20:24;;;;;;;8.20;5.70;;;;;;;10.52;56.27;100047.55;218228;1257;152450;-78
2023/05/31 21:25:28;;;;;;;12.40;3.90;;;;;;;10.43;56.75;100049.64;217928;1257;139692;-78
2023/05/31 21:30:32;;;;;;;5.70;4.60;;;;;;;10.35;57.06;100040.50;217985;1256;140451;-73
2023/05/31 21:35:39;;;;;;;6.80;3.90;;;;;;;10.21;57.41;100039.77;217759;1256;139157;-74
2023/05/31 21:40:46;;;;;;;11.40;5.10;;;;;;;10.06;57.84;100039.36;218488;1257;140727;-70
2023/05/31 21:45:56;;;;;;;14.90;5.30;;;;;;;9.94;57.91;100036.23;217805;1257;140323;-71
2023/05/31 21:51:00;;;;;;;12.60;5.80;;;;;;;9.86;58.48;100037.46;218765;1255;140294;-73
2023/05/31 21:56:06;;;;;;;16.00;5.30;;;;;;;9.80;58.76;100037.41;217288;1257;918467;-70
2023/05/31 22:01:17;;;;;;;5.90;4.00;;;;;;;9.69;59.07;100037.30;218369;1256;140565;-67
2023/05/31 22:06:22;;;;;;;7.40;4.40;;;;;;;9.59;59.58;100037.23;220059;1256;139887;-71
2023/05/31 22:11:25;;;;;;;6.20;3.60;;;;;;;9.48;59.80;100034.60;218732;1256;140377;-72
2023/05/31 22:16:29;;;;;;;7.70;3.60;;;;;;;9.35;59.91;100038.01;220600;1256;140039;-76
2023/05/31 22:21:32;;;;;;;10.50;4.00;;;;;;;9.25;60.28;100031.17;220238;1256;139832;-77
2023/05/31 22:26:37;;;;;;;7.40;4.20;;;;;;;9.17;60.31;100028.88;218557;1256;140424;-75
2023/05/31 22:31:40;;;;;;;7.30;5.00;;;;;;;9.07;60.58;100027.17;219755;1256;140311;-79
2023/05/31 22:36:46;;;;;;;8.50;3.70;;;;;;;9.03;61.21;100025.07;218470;1256;139251;-72
2023/05/31 22:41:52;;;;;;;5.00;3.10;;;;;;;9.01;61.51;100023.98;218241;1255;139261;-78
2023/05/31 22:46:57;;;;;;;2.60;2.40;;;;;;;8.91;61.91;100021.16;217752;1256;139727;-81
2023/05/31 22:52:02;;;;;;;7.40;3.70;;;;;;;8.84;61.92;100016.60;218486;1259;140086;-84
2023/05/31 22:57:07;;;;;;;10.00;3.60;;;;;;;8.75;62.45;100019.44;218122;1257;139176;-75
2023/05/31 23:02:12;;;;;;;6.30;4.30;;;;;;;8.72;62.58;100022.52;218213;1257;139149;-74
2023/05/31 23:07:17;;;;;;;5.50;3.50;;;;;;;8.61;62.18;100022.10;217894;1257;139098;-77
2023/05/31 23:12:24;;;;;;;4.70;2.60;;;;;;;8.55;63.01;100023.80;217802;1257;220965;-74